Anacoco, Louisiana
Current Conditions -  °F | °C
As of 5:56 PM on Friday 28 Nov 2014 (Local Time) from KAQV Reporting Station
Clear Clear  
Wind Chill: 55°   Ceiling: Unl
Heat Index: 55°   Visibility: 10mi
Dew Point: 48°   Wind: 3mph
Humidity: 77%   Direction: 160°SSE
Pressure: 30.18"   Gusts: NA
Location:  31.25°N, 93.34°W
Report Text: KAQV 282356Z AUTO 16003KT 10SM CLR 13/09 A3018 RMK AO2 SLP220 T01280089 10189 20128 58007
Loading
Personal Weather Stations






























Interactive Weather Map New forecast layout! Learn more

10-Day Weather Forecast

Advertisements
Track Severe Weather on mobile